Time;durP1;ratioP1;P1;durP2;ratioP2;P2;SDS_P1;SDS_P2;PMS_P1;PMS_P2;Temp;Humidity;BMP_temperature;BMP_pressure;BME280_temperature;BME280_humidity;BME280_pressure;Samples;Min_cycle;Max_cycle;Signal;HPM_P1;HPM_P2
2022/06/26 00:01:39;;;;;;;1.40;0.80;;;;;;;17.74;100.00;99704.95;1657965;84;21110;-55
2022/06/26 00:04:07;;;;;;;3.35;0.90;;;;;;;17.72;100.00;99706.92;1662315;84;21075;-55
2022/06/26 00:06:34;;;;;;;1.77;0.90;;;;;;;17.69;100.00;99713.46;1711123;81;21081;-55
2022/06/26 00:09:00;;;;;;;3.37;0.72;;;;;;;17.64;100.00;99715.69;1712720;81;21149;-55
2022/06/26 00:11:27;;;;;;;1.25;0.80;;;;;;;17.57;100.00;99715.77;1712716;81;21416;-55
2022/06/26 00:13:53;;;;;;;1.05;0.70;;;;;;;17.52;100.00;99715.75;1714194;81;21026;-55
2022/06/26 00:16:21;;;;;;;2.80;0.70;;;;;;;17.46;100.00;99723.01;1658138;84;21085;-55
2022/06/26 00:18:48;;;;;;;2.70;0.70;;;;;;;17.39;100.00;99723.48;1713402;81;21574;-55
2022/06/26 00:21:15;;;;;;;3.33;0.80;;;;;;;17.32;100.00;99724.08;1715308;81;21146;-55
2022/06/26 00:23:42;;;;;;;2.87;0.80;;;;;;;17.26;100.00;99727.28;1714796;81;21125;-55
2022/06/26 00:26:08;;;;;;;1.67;0.62;;;;;;;17.20;100.00;99720.92;1718642;81;21456;-55
2022/06/26 00:28:35;;;;;;;2.47;0.80;;;;;;;17.17;100.00;99717.09;1713198;81;21046;-55
2022/06/26 00:31:01;;;;;;;0.98;0.70;;;;;;;17.15;100.00;99720.41;1707820;81;21430;-55
2022/06/26 00:33:28;;;;;;;3.37;0.80;;;;;;;17.13;100.00;99721.02;1712462;81;21252;-55
2022/06/26 00:35:55;;;;;;;1.20;0.85;;;;;;;17.12;100.00;99726.07;1717683;81;21031;-55
2022/06/26 00:38:22;;;;;;;1.15;0.98;;;;;;;17.11;100.00;99729.77;1712003;81;21541;-55
2022/06/26 00:40:48;;;;;;;1.72;1.10;;;;;;;17.10;100.00;99732.98;1715658;81;21268;-55
2022/06/26 00:43:15;;;;;;;1.67;0.80;;;;;;;17.09;100.00;99731.27;1710838;81;21089;-55
2022/06/26 00:45:42;;;;;;;3.27;0.70;;;;;;;17.05;100.00;99729.75;1715542;81;21171;-55
2022/06/26 00:48:09;;;;;;;1.00;0.90;;;;;;;17.00;100.00;99739.63;1710794;81;21094;-55
2022/06/26 00:50:35;;;;;;;1.98;0.80;;;;;;;16.97;100.00;99734.90;1711077;81;21091;-55
2022/06/26 00:53:02;;;;;;;1.45;0.95;;;;;;;16.95;100.00;99735.50;1712440;81;21594;-55
2022/06/26 00:55:28;;;;;;;3.35;0.70;;;;;;;16.92;100.00;99741.19;1712233;81;21575;-55
2022/06/26 00:57:55;;;;;;;1.52;0.80;;;;;;;16.87;100.00;99740.15;1711719;81;22186;-55
2022/06/26 01:00:22;;;;;;;4.20;0.98;;;;;;;16.83;100.00;99734.58;1711848;81;21117;-54
2022/06/26 01:02:48;;;;;;;3.62;1.12;;;;;;;16.79;100.00;99735.77;1707570;81;21046;-55
2022/06/26 01:05:15;;;;;;;1.20;0.80;;;;;;;16.74;100.00;99733.03;1714934;81;21093;-55
2022/06/26 01:07:42;;;;;;;0.85;0.70;;;;;;;16.68;100.00;99733.45;1680078;82;21109;-55
2022/06/26 01:10:09;;;;;;;1.45;0.93;;;;;;;16.58;100.00;99738.20;1709185;81;21512;-55
2022/06/26 01:12:37;;;;;;;1.07;0.75;;;;;;;16.50;100.00;99737.02;1713559;81;21133;-55
2022/06/26 01:15:09;;;;;;;0.90;0.75;;;;;;;16.44;100.00;99742.88;1708497;81;21757;-55
2022/06/26 01:17:36;;;;;;;1.42;0.75;;;;;;;16.40;100.00;99737.31;1714865;81;21038;-55
2022/06/26 01:20:08;;;;;;;1.65;0.90;;;;;;;16.41;100.00;99739.92;1711644;81;21050;-55
2022/06/26 01:22:35;;;;;;;1.40;0.80;;;;;;;16.42;100.00;99744.34;1728659;81;21840;-55
2022/06/26 01:25:01;;;;;;;1.60;0.70;;;;;;;16.45;100.00;99745.98;1713850;81;20868;-55
2022/06/26 01:27:29;;;;;;;1.10;1.00;;;;;;;16.44;100.00;99746.47;1712633;81;20891;-55
2022/06/26 01:29:57;;;;;;;2.45;0.70;;;;;;;16.39;100.00;99747.30;1715712;81;20982;-55
2022/06/26 01:32:24;;;;;;;2.35;0.90;;;;;;;16.32;100.00;99746.02;1710317;81;21075;-55
2022/06/26 01:34:51;;;;;;;1.82;0.78;;;;;;;16.30;100.00;99744.38;1696869;81;21477;-55
2022/06/26 01:37:18;;;;;;;3.60;0.82;;;;;;;16.27;100.00;99745.45;1698032;81;21006;-54
2022/06/26 01:39:46;;;;;;;1.17;0.80;;;;;;;16.27;100.00;99748.17;1716278;81;21794;-54
2022/06/26 01:42:12;;;;;;;1.10;0.62;;;;;;;16.26;100.00;99753.22;1717290;81;20943;-55
2022/06/26 01:44:39;;;;;;;0.75;0.70;;;;;;;16.23;100.00;99759.77;1721178;81;20975;-55
2022/06/26 01:47:05;;;;;;;1.42;1.10;;;;;;;16.20;100.00;99757.73;1708681;81;21140;-55
2022/06/26 01:49:34;;;;;;;1.17;0.80;;;;;;;16.17;100.00;99762.89;1716139;81;21125;-55
2022/06/26 01:52:01;;;;;;;1.30;0.72;;;;;;;16.14;100.00;99765.84;1714374;81;21086;-54
2022/06/26 01:54:28;;;;;;;1.70;0.72;;;;;;;16.14;100.00;99767.69;1715075;81;21114;-56
2022/06/26 01:56:56;;;;;;;1.10;0.80;;;;;;;16.16;100.00;99767.10;1712692;81;21089;-54
2022/06/26 01:59:23;;;;;;;2.22;0.90;;;;;;;16.17;100.00;99767.45;1712564;81;21068;-53
2022/06/26 02:01:50;;;;;;;1.30;0.70;;;;;;;16.13;100.00;99764.59;1715387;80;21408;-54
2022/06/26 02:04:17;;;;;;;2.87;0.90;;;;;;;16.10;100.00;99767.52;1724192;80;20986;-53
2022/06/26 02:06:44;;;;;;;7.17;1.00;;;;;;;16.03;100.00;99765.73;1722680;80;21061;-53
2022/06/26 02:13:36;;;;;;;1.00;0.82;;;;;;;15.97;100.00;99772.95;1719891;80;21094;-53
2022/06/26 02:14:26;;;;;;;1.67;0.80;;;;;;;15.93;100.00;99778.69;1718856;80;21113;-53
2022/06/26 02:16:56;;;;;;;2.42;0.80;;;;;;;15.90;100.00;99774.36;1720018;80;21010;-54
2022/06/26 02:19:23;;;;;;;1.80;0.80;;;;;;;15.91;100.00;99776.59;1718028;80;21050;-53
2022/06/26 02:21:49;;;;;;;1.55;0.90;;;;;;;15.94;100.00;99783.14;1719914;80;21567;-53
2022/06/26 02:24:17;;;;;;;2.35;1.17;;;;;;;15.96;100.00;99782.55;1719277;80;21242;-54
2022/06/26 02:26:44;;;;;;;3.05;0.90;;;;;;;15.96;100.00;99779.84;1715768;80;21029;-53
2022/06/26 02:29:10;;;;;;;1.00;0.88;;;;;;;15.95;100.00;99781.69;1717830;80;21458;-53
2022/06/26 02:31:38;;;;;;;0.98;0.80;;;;;;;15.94;100.00;99784.50;1723076;80;21080;-55
2022/06/26 02:34:05;;;;;;;2.12;0.90;;;;;;;15.88;100.00;99783.97;1720690;80;21546;-54
2022/06/26 02:36:31;;;;;;;5.75;0.70;;;;;;;15.85;100.00;99790.95;1714716;80;21180;-54
2022/06/26 02:38:59;;;;;;;2.17;0.80;;;;;;;15.85;100.00;99788.23;1721569;80;21050;-54
2022/06/26 02:41:25;;;;;;;1.27;0.70;;;;;;;15.83;100.00;99791.53;1720475;80;21406;-54
2022/06/26 02:43:52;;;;;;;3.30;0.82;;;;;;;15.82;100.00;99801.17;1731136;80;21492;-55
2022/06/26 02:46:19;;;;;;;2.05;0.70;;;;;;;15.82;100.00;99797.94;1722140;80;20903;-55
2022/06/26 02:48:46;;;;;;;0.98;0.82;;;;;;;15.85;100.00;99801.81;1719281;80;21967;-54
2022/06/26 02:51:12;;;;;;;1.45;0.80;;;;;;;15.91;100.00;99799.66;1714867;80;21669;-53
2022/06/26 02:53:39;;;;;;;5.10;1.00;;;;;;;15.95;100.00;99795.74;1719158;80;21100;-55
2022/06/26 02:56:05;;;;;;;3.72;1.12;;;;;;;15.98;100.00;99795.05;1726003;80;21050;-54
2022/06/26 02:58:33;;;;;;;3.40;0.98;;;;;;;16.02;100.00;99795.20;1722978;80;21117;-54
2022/06/26 03:01:01;;;;;;;2.22;1.00;;;;;;;16.08;100.00;99795.25;1718479;80;22410;-55
2022/06/26 03:03:28;;;;;;;1.57;0.90;;;;;;;16.14;100.00;99797.56;1700417;81;20988;-53
2022/06/26 03:05:55;;;;;;;1.42;1.05;;;;;;;16.20;100.00;99806.14;1708624;81;21043;-53
2022/06/26 03:08:23;;;;;;;3.85;0.88;;;;;;;16.27;100.00;99805.20;1721133;81;21509;-54
2022/06/26 03:10:51;;;;;;;2.00;1.00;;;;;;;16.35;100.00;99810.09;1714030;81;21452;-54
2022/06/26 03:13:18;;;;;;;5.22;1.00;;;;;;;16.41;100.00;99806.48;1714969;81;21205;-59
2022/06/26 03:15:46;;;;;;;1.20;1.10;;;;;;;16.50;100.00;99814.46;1710847;81;21101;-54
2022/06/26 03:18:13;;;;;;;3.08;1.32;;;;;;;16.58;100.00;99810.22;1717828;81;21118;-54
2022/06/26 03:20:41;;;;;;;2.45;1.20;;;;;;;16.70;100.00;99812.55;1719537;81;21107;-54
2022/06/26 03:23:09;;;;;;;1.95;1.15;;;;;;;16.80;100.00;99808.67;1716044;81;21078;-54
2022/06/26 03:25:36;;;;;;;3.92;1.10;;;;;;;16.89;100.00;99808.88;1716805;81;22522;-54
2022/06/26 03:28:04;;;;;;;2.58;1.40;;;;;;;17.01;100.00;99808.48;1711869;81;21671;-54
2022/06/26 03:30:32;;;;;;;2.95;1.60;;;;;;;17.11;100.00;99805.44;1712449;81;22372;-55
2022/06/26 03:33:00;;;;;;;1.45;1.25;;;;;;;17.22;100.00;99806.00;1717051;81;21038;-54
2022/06/26 03:35:27;;;;;;;1.85;1.32;;;;;;;17.30;100.00;99804.94;1709524;81;21090;-53
2022/06/26 03:37:55;;;;;;;1.72;1.20;;;;;;;17.36;100.00;99805.83;1716140;81;21099;-54
2022/06/26 03:40:22;;;;;;;1.22;1.10;;;;;;;17.42;100.00;99803.16;1716643;81;20990;-56
2022/06/26 03:42:48;;;;;;;2.62;1.20;;;;;;;17.48;100.00;99809.48;1712812;81;21054;-54
2022/06/26 03:45:15;;;;;;;2.35;1.30;;;;;;;17.53;100.00;99808.63;1662682;84;21575;-55
2022/06/26 03:47:41;;;;;;;1.95;1.50;;;;;;;17.57;100.00;99804.70;1713320;81;21111;-54
2022/06/26 03:50:09;;;;;;;3.62;1.60;;;;;;;17.64;100.00;99810.09;1708622;81;22541;-56
2022/06/26 03:52:36;;;;;;;3.10;1.62;;;;;;;17.70;100.00;99808.25;1714020;81;21070;-53
2022/06/26 03:55:05;;;;;;;4.03;1.37;;;;;;;17.77;100.00;99810.90;1707712;81;21018;-54
2022/06/26 03:57:32;;;;;;;1.55;1.45;;;;;;;17.85;100.00;99809.81;1712951;81;21141;-54
2022/06/26 03:59:58;;;;;;;3.20;1.62;;;;;;;17.92;100.00;99810.20;1712447;81;21052;-55
2022/06/26 04:02:30;;;;;;;4.40;1.80;;;;;;;18.00;100.00;99811.84;1717081;80;21488;-54
2022/06/26 04:04:56;;;;;;;2.15;1.65;;;;;;;18.09;100.00;99811.98;1730257;80;21073;-54
2022/06/26 04:07:23;;;;;;;3.45;1.45;;;;;;;18.19;100.00;99812.14;1732036;80;21093;-53
2022/06/26 04:09:53;;;;;;;3.62;1.60;;;;;;;18.27;100.00;99809.67;1725895;80;21211;-53
2022/06/26 04:12:21;;;;;;;1.35;1.25;;;;;;;18.40;100.00;99815.01;1726038;80;21105;-54
2022/06/26 04:14:48;;;;;;;8.58;4.53;;;;;;;18.51;100.00;99806.36;1728383;80;21518;-52
2022/06/26 04:17:16;;;;;;;4.53;2.77;;;;;;;18.65;100.00;99805.77;1727013;80;21124;-54
2022/06/26 04:19:45;;;;;;;2.77;1.67;;;;;;;18.78;100.00;99807.39;1727508;80;21285;-54
2022/06/26 04:22:11;;;;;;;2.87;1.52;;;;;;;18.92;100.00;99807.62;1732942;80;20978;-54
2022/06/26 04:24:39;;;;;;;2.35;2.22;;;;;;;19.04;100.00;99805.27;1726679;80;21464;-53
2022/06/26 04:29:47;;;;;;;4.08;1.15;;;;;;;19.31;100.00;99806.70;1867407;75;28583;-55
2022/06/26 04:32:13;;;;;;;1.30;1.20;;;;;;;19.37;100.00;99811.15;1836497;77;21040;-54
2022/06/26 04:34:43;;;;;;;1.72;1.10;;;;;;;19.48;100.00;99807.56;1839814;77;21255;-53
2022/06/26 04:37:09;;;;;;;5.80;1.45;;;;;;;19.58;100.00;99809.86;1841887;75;20965;-53
2022/06/26 04:39:35;;;;;;;2.98;1.20;;;;;;;19.69;100.00;99805.73;1840824;77;20914;-53
2022/06/26 04:42:04;;;;;;;1.30;1.00;;;;;;;19.80;100.00;99807.55;1839779;76;20937;-53
2022/06/26 04:44:32;;;;;;;4.53;1.27;;;;;;;19.92;100.00;99809.22;1840204;76;21468;-55
2022/06/26 04:47:00;;;;;;;1.42;0.82;;;;;;;20.04;100.00;99808.17;1844908;77;21177;-53
2022/06/26 04:49:29;;;;;;;1.80;1.00;;;;;;;20.15;100.00;99808.13;1838447;76;20892;-54
2022/06/26 04:51:55;;;;;;;1.80;0.80;;;;;;;20.27;100.00;99810.27;1842502;77;20835;-53
2022/06/26 04:54:26;;;;;;;0.90;0.80;;;;;;;20.37;100.00;99816.20;1838114;76;21022;-54
2022/06/26 04:56:53;;;;;;;1.15;0.80;;;;;;;20.49;100.00;99807.44;1827920;77;21127;-54
2022/06/26 04:59:20;;;;;;;1.02;0.93;;;;;;;20.62;100.00;99809.43;1806644;77;21233;-53
2022/06/26 05:01:47;;;;;;;2.15;0.90;;;;;;;20.74;100.00;99802.87;1800901;77;21329;-53
2022/06/26 05:04:18;;;;;;;2.33;0.95;;;;;;;20.90;100.00;99805.60;1806128;77;21510;-53
2022/06/26 05:06:47;;;;;;;2.15;1.07;;;;;;;21.02;100.00;99798.50;1804326;77;21483;-53
2022/06/26 05:09:17;;;;;;;0.78;0.78;;;;;;;21.14;100.00;99807.48;1800131;77;20960;-54
2022/06/26 05:11:44;;;;;;;1.10;0.70;;;;;;;21.24;100.00;99802.94;1804270;77;21861;-53
2022/06/26 05:14:13;;;;;;;0.70;0.70;;;;;;;21.36;100.00;99807.77;1801232;78;21449;-55
2022/06/26 05:16:41;;;;;;;1.42;1.00;;;;;;;21.44;100.00;99809.30;1798480;77;21422;-55
2022/06/26 05:19:09;;;;;;;2.42;0.75;;;;;;;21.52;100.00;99806.21;1805350;77;21460;-53
2022/06/26 05:21:37;;;;;;;2.15;0.60;;;;;;;21.60;100.00;99808.27;1801158;77;21583;-52
2022/06/26 05:24:05;;;;;;;1.47;0.70;;;;;;;21.65;100.00;99808.70;1792036;77;21168;-55
2022/06/26 05:26:31;;;;;;;2.85;0.60;;;;;;;21.71;100.00;99809.48;1802439;77;21233;-57
2022/06/26 05:28:58;;;;;;;2.67;0.60;;;;;;;21.78;100.00;99805.66;1812137;76;21061;-55
2022/06/26 05:31:24;;;;;;;0.62;0.60;;;;;;;21.83;100.00;99805.61;1821374;76;21569;-52
2022/06/26 05:33:51;;;;;;;1.75;0.60;;;;;;;21.93;100.00;99806.11;1821095;76;21028;-52
2022/06/26 05:36:17;;;;;;;0.82;0.60;;;;;;;22.00;100.00;99810.90;1820159;76;21779;-53
2022/06/26 05:38:44;;;;;;;0.85;0.50;;;;;;;22.08;100.00;99814.28;1823218;76;21075;-54
2022/06/26 05:41:10;;;;;;;2.60;0.70;;;;;;;22.14;100.00;99813.19;1816717;77;21148;-55
2022/06/26 05:43:37;;;;;;;0.70;0.60;;;;;;;22.23;100.00;99810.94;1812125;77;21527;-53
2022/06/26 05:46:05;;;;;;;0.82;0.60;;;;;;;22.32;100.00;99811.94;1822095;77;21274;-55
2022/06/26 05:48:37;;;;;;;1.05;0.60;;;;;;;22.41;100.00;99809.68;1766130;77;21142;-54
2022/06/26 05:51:06;;;;;;;1.10;0.60;;;;;;;22.52;100.00;99816.38;1818926;77;21024;-53
2022/06/26 05:53:37;;;;;;;0.60;0.60;;;;;;;22.61;100.00;99813.25;1816582;77;21036;-53
2022/06/26 05:56:25;;;;;;;0.68;0.57;;;;;;;22.69;100.00;99815.24;1822778;77;21053;-55
2022/06/26 05:59:10;;;;;;;2.25;0.70;;;;;;;22.75;100.00;99814.16;1820158;77;21068;-54
2022/06/26 06:01:56;;;;;;;0.60;0.60;;;;;;;22.83;100.00;99817.02;1814082;77;21153;-53
2022/06/26 06:04:23;;;;;;;2.10;0.65;;;;;;;22.89;100.00;99807.31;1810603;77;21079;-54
2022/06/26 06:06:50;;;;;;;3.22;0.60;;;;;;;22.94;100.00;99813.23;1816381;77;21518;-55
2022/06/26 06:09:17;;;;;;;1.95;0.50;;;;;;;23.01;100.00;99817.09;1818808;77;20973;-53
2022/06/26 06:11:43;;;;;;;1.15;0.50;;;;;;;23.08;100.00;99814.59;1807141;77;21127;-55
2022/06/26 06:14:13;;;;;;;1.32;0.55;;;;;;;23.16;100.00;99815.56;1810742;77;21359;-54
2022/06/26 06:16:40;;;;;;;1.75;0.60;;;;;;;23.24;100.00;99817.04;1813190;77;21077;-54
2022/06/26 06:19:08;;;;;;;0.57;0.50;;;;;;;23.32;100.00;99819.88;1819443;77;22104;-54
2022/06/26 06:21:35;;;;;;;0.85;0.80;;;;;;;23.39;100.00;99820.98;1815160;77;21085;-55
2022/06/26 06:24:01;;;;;;;0.62;0.50;;;;;;;23.49;100.00;99817.35;1814221;77;21072;-55
2022/06/26 06:26:28;;;;;;;1.47;0.50;;;;;;;23.56;100.00;99824.81;1817678;77;21880;-55
2022/06/26 06:28:57;;;;;;;0.50;0.50;;;;;;;23.63;100.00;99826.46;1805434;77;20993;-54
2022/06/26 06:31:23;;;;;;;0.55;0.50;;;;;;;23.71;100.00;99826.55;1794498;78;21509;-56
2022/06/26 06:33:49;;;;;;;1.82;0.57;;;;;;;23.79;100.00;99825.25;1793631;78;21303;-54
2022/06/26 06:36:16;;;;;;;0.65;0.55;;;;;;;23.89;100.00;99835.67;1799325;77;21060;-54
2022/06/26 06:38:43;;;;;;;0.70;0.50;;;;;;;23.98;100.00;99826.48;1797453;78;21205;-53
2022/06/26 06:41:10;;;;;;;2.52;0.60;;;;;;;24.11;100.00;99832.94;1799627;77;21025;-53
2022/06/26 06:43:42;;;;;;;2.10;0.47;;;;;;;24.23;100.00;99829.48;1787804;77;21430;-56
2022/06/26 06:46:19;;;;;;;3.90;0.50;;;;;;;24.35;100.00;99829.05;1800904;77;21061;-54
2022/06/26 06:48:47;;;;;;;0.65;0.50;;;;;;;24.47;100.00;99825.54;1798493;77;21026;-54
2022/06/26 06:51:16;;;;;;;0.82;0.50;;;;;;;24.56;100.00;99821.82;1807776;77;21108;-55
2022/06/26 06:53:43;;;;;;;0.60;0.50;;;;;;;24.64;100.00;99831.51;1804086;77;20883;-54
2022/06/26 06:56:10;;;;;;;1.10;0.40;;;;;;;24.70;100.00;99829.98;1805697;77;21565;-55
2022/06/26 06:58:37;;;;;;;1.50;0.50;;;;;;;24.72;100.00;99830.19;1801081;77;21047;-56
2022/06/26 07:01:06;;;;;;;0.95;0.40;;;;;;;24.77;100.00;99835.19;1801697;77;21123;-56
2022/06/26 07:03:32;;;;;;;0.78;0.50;;;;;;;24.82;100.00;99831.45;1801862;77;21727;-55
2022/06/26 07:05:59;;;;;;;0.70;0.42;;;;;;;24.86;100.00;99833.70;1803696;77;20859;-56
2022/06/26 07:08:27;;;;;;;1.35;0.40;;;;;;;24.91;100.00;99836.02;1800900;77;20953;-55
2022/06/26 07:10:55;;;;;;;0.45;0.40;;;;;;;24.97;100.00;99824.84;1807284;77;22314;-56
2022/06/26 07:13:21;;;;;;;1.32;0.40;;;;;;;25.05;100.00;99823.52;1801137;77;21288;-55
2022/06/26 07:15:48;;;;;;;0.40;0.40;;;;;;;25.13;100.00;99838.19;1796544;77;22465;-54
2022/06/26 07:18:15;;;;;;;0.68;0.50;;;;;;;25.18;100.00;99833.55;1797148;77;21065;-55
2022/06/26 07:20:42;;;;;;;0.80;0.60;;;;;;;25.20;100.00;99835.12;1805976;77;21023;-57
2022/06/26 07:23:09;;;;;;;0.40;0.40;;;;;;;25.22;100.00;99845.97;1809395;77;21104;-56
2022/06/26 07:25:37;;;;;;;0.40;0.40;;;;;;;25.21;100.00;99838.73;1796705;77;20910;-58
2022/06/26 07:28:05;;;;;;;2.15;0.50;;;;;;;25.19;100.00;99834.77;1801643;77;21125;-57
2022/06/26 07:30:35;;;;;;;0.80;0.40;;;;;;;25.18;100.00;99835.78;1818205;77;20896;-57
2022/06/26 07:34:12;;;;;;;4.92;0.50;;;;;;;25.21;100.00;99841.49;1821081;77;21360;-56
2022/06/26 07:35:34;;;;;;;1.52;0.40;;;;;;;25.25;100.00;99834.64;1817979;77;21335;-55
2022/06/26 07:38:03;;;;;;;0.70;0.40;;;;;;;25.32;100.00;99831.56;1793541;77;21629;-55
2022/06/26 07:40:30;;;;;;;2.42;0.50;;;;;;;25.39;100.00;99825.73;1816322;77;21136;-55
2022/06/26 07:42:58;;;;;;;1.15;0.40;;;;;;;25.47;100.00;99822.13;1814446;77;21253;-55
2022/06/26 07:45:25;;;;;;;0.50;0.40;;;;;;;25.53;100.00;99815.42;1796594;77;20933;-56
2022/06/26 07:47:54;;;;;;;0.60;0.55;;;;;;;25.62;100.00;99828.23;1827087;77;20902;-56
2022/06/26 07:50:22;;;;;;;0.65;0.40;;;;;;;25.73;100.00;99819.31;1825455;77;21485;-56
2022/06/26 07:52:48;;;;;;;0.42;0.40;;;;;;;25.80;100.00;99821.73;1819468;77;21679;-56
2022/06/26 07:55:16;;;;;;;1.37;0.40;;;;;;;25.88;100.00;99818.47;1823647;77;20874;-54
2022/06/26 07:57:43;;;;;;;0.75;0.40;;;;;;;25.96;100.00;99822.61;1820223;77;20968;-55
2022/06/26 08:00:10;;;;;;;1.67;0.53;;;;;;;26.03;100.00;99828.85;1821070;76;20913;-57
2022/06/26 08:02:40;;;;;;;1.82;0.40;;;;;;;26.03;100.00;99824.16;1819588;77;21420;-57
2022/06/26 08:05:07;;;;;;;0.70;0.50;;;;;;;26.00;100.00;99827.29;1821035;77;21727;-55
2022/06/26 08:07:33;;;;;;;0.90;0.50;;;;;;;25.95;100.00;99826.92;1819144;77;21036;-55
2022/06/26 08:09:59;;;;;;;0.80;0.50;;;;;;;25.85;100.00;99831.23;1815800;77;21385;-57
2022/06/26 08:12:26;;;;;;;2.65;0.40;;;;;;;25.78;100.00;99837.56;1819245;77;21332;-55
2022/06/26 08:14:53;;;;;;;1.17;0.50;;;;;;;25.75;100.00;99835.17;1821900;77;21106;-55
2022/06/26 08:17:20;;;;;;;1.12;0.40;;;;;;;25.78;100.00;99840.33;1822786;77;21122;-56
2022/06/26 08:19:47;;;;;;;1.27;0.40;;;;;;;25.82;100.00;99842.59;1816154;77;21032;-56
2022/06/26 08:22:14;;;;;;;0.40;0.33;;;;;;;25.80;100.00;99847.41;1815338;77;21045;-56
2022/06/26 08:24:41;;;;;;;0.60;0.40;;;;;;;25.75;100.00;99839.30;1817665;77;21630;-54
2022/06/26 08:27:09;;;;;;;1.10;0.60;;;;;;;25.69;100.00;99836.69;1823887;77;20965;-57
2022/06/26 08:29:36;;;;;;;0.40;0.40;;;;;;;25.72;100.00;99834.98;1816961;77;21191;-58
2022/06/26 08:32:05;;;;;;;1.72;0.30;;;;;;;25.81;100.00;99831.73;1809333;77;21068;-55
2022/06/26 08:34:32;;;;;;;1.77;0.30;;;;;;;25.89;100.00;99833.98;1807557;77;21087;-54
2022/06/26 08:36:59;;;;;;;2.90;0.30;;;;;;;26.01;100.00;99840.05;1800695;77;21061;-55
2022/06/26 08:39:25;;;;;;;1.95;0.30;;;;;;;26.14;100.00;99836.25;1805738;77;21068;-55
2022/06/26 08:41:53;;;;;;;1.90;0.40;;;;;;;26.22;100.00;99833.50;1800976;77;21199;-54
2022/06/26 08:44:20;;;;;;;0.37;0.30;;;;;;;26.28;100.00;99832.00;1801568;77;21094;-55
2022/06/26 08:46:47;;;;;;;0.45;0.30;;;;;;;26.27;100.00;99820.09;1804810;77;21783;-53
2022/06/26 08:49:15;;;;;;;1.52;0.40;;;;;;;26.26;100.00;99821.13;1799812;77;22061;-54
2022/06/26 08:51:44;;;;;;;2.08;0.40;;;;;;;26.26;100.00;99823.02;1798188;77;21058;-56
2022/06/26 08:54:12;;;;;;;1.75;0.30;;;;;;;26.26;100.00;99830.78;1797648;77;21199;-53
2022/06/26 08:56:41;;;;;;;0.30;0.30;;;;;;;26.26;100.00;99836.81;1798689;77;20928;-54
2022/06/26 08:59:11;;;;;;;2.52;0.37;;;;;;;26.25;100.00;99840.58;1797009;77;21484;-56
2022/06/26 09:01:39;;;;;;;1.17;0.40;;;;;;;26.23;100.00;99831.09;1799606;77;21117;-56
2022/06/26 09:04:05;;;;;;;2.70;0.40;;;;;;;26.24;100.00;99831.44;1802832;77;21085;-58
2022/06/26 09:06:35;;;;;;;3.37;0.50;;;;;;;26.28;100.00;99823.20;1803951;77;21273;-55
2022/06/26 09:09:27;;;;;;;3.55;0.40;;;;;;;26.31;100.00;99824.22;1800063;77;20865;-56
2022/06/26 09:11:56;;;;;;;0.80;0.40;;;;;;;26.34;100.00;99825.27;1799403;77;21073;-56
2022/06/26 09:14:24;;;;;;;2.37;0.33;;;;;;;26.28;100.00;99830.62;1796036;77;21109;-55
2022/06/26 09:16:51;;;;;;;0.50;0.40;;;;;;;26.22;100.00;99825.73;1797739;77;21021;-55
2022/06/26 09:19:20;;;;;;;0.50;0.40;;;;;;;26.14;100.00;99825.73;1807652;77;21067;-55
2022/06/26 09:21:47;;;;;;;3.62;0.40;;;;;;;26.04;100.00;99820.38;1800233;77;21334;-55
2022/06/26 09:24:16;;;;;;;1.12;0.30;;;;;;;25.97;100.00;99828.99;1801708;77;21674;-53
2022/06/26 09:26:43;;;;;;;0.70;0.65;;;;;;;25.95;100.00;99822.27;1805143;77;21041;-56
2022/06/26 09:29:14;;;;;;;1.20;0.47;;;;;;;25.99;100.00;99825.56;1806746;77;21024;-54
2022/06/26 09:31:41;;;;;;;1.12;0.40;;;;;;;26.03;100.00;99818.65;1807571;77;21795;-54
2022/06/26 09:34:22;;;;;;;5.25;0.45;;;;;;;26.13;100.00;99819.86;1801585;78;21029;-52
2022/06/26 09:36:57;;;;;;;0.88;0.30;;;;;;;26.25;100.00;99813.85;1808270;78;21496;-54
2022/06/26 09:39:25;;;;;;;0.60;0.55;;;;;;;26.40;100.00;99814.55;1806174;78;21087;-54
2022/06/26 09:41:51;;;;;;;3.52;0.37;;;;;;;26.53;100.00;99814.91;1802596;77;21317;-55
2022/06/26 09:44:19;;;;;;;3.92;0.40;;;;;;;26.62;100.00;99806.95;1807324;78;22073;-55
2022/06/26 09:46:45;;;;;;;2.27;0.30;;;;;;;26.72;100.00;99813.13;1808826;77;21077;-54
2022/06/26 09:49:12;;;;;;;3.40;0.50;;;;;;;26.80;100.00;99817.25;1810879;77;21104;-53
2022/06/26 09:51:39;;;;;;;2.12;0.42;;;;;;;26.82;100.00;99815.69;1805619;77;21049;-56
2022/06/26 09:54:06;;;;;;;2.95;0.40;;;;;;;26.80;100.00;99818.63;1804323;78;21733;-58
2022/06/26 09:56:33;;;;;;;1.87;0.40;;;;;;;26.78;100.00;99817.97;1811149;78;22369;-55
2022/06/26 09:58:59;;;;;;;0.45;0.40;;;;;;;26.81;100.00;99822.25;1807759;78;21076;-55
2022/06/26 10:07:03;;;;;;;0.70;0.50;;;;;;;26.85;100.00;99830.54;1811423;78;21507;-52
2022/06/26 10:09:30;;;;;;;1.85;0.37;;;;;;;26.91;100.00;99822.44;1807300;78;21534;-56
2022/06/26 10:11:58;;;;;;;0.47;0.40;;;;;;;26.94;100.00;99817.09;1810074;78;21045;-56
2022/06/26 10:14:29;;;;;;;2.25;0.40;;;;;;;26.93;100.00;99816.23;1811149;78;21090;-55
2022/06/26 10:18:14;;;;;;;1.17;0.40;;;;;;;26.99;100.00;99811.36;1791649;77;22295;-54
2022/06/26 10:20:41;;;;;;;2.35;0.40;;;;;;;26.99;100.00;99809.98;1767924;78;21262;-56
2022/06/26 10:23:08;;;;;;;0.93;0.40;;;;;;;27.03;100.00;99810.50;1767978;78;20921;-55
2022/06/26 10:25:34;;;;;;;4.00;0.40;;;;;;;27.06;100.00;99815.65;1769444;78;21009;-53
2022/06/26 10:28:01;;;;;;;3.70;0.50;;;;;;;27.05;100.00;99812.58;1769789;78;21441;-53
2022/06/26 10:30:29;;;;;;;1.75;0.40;;;;;;;26.99;100.00;99822.93;1767726;78;20926;-54
2022/06/26 10:33:14;;;;;;;0.78;0.42;;;;;;;26.94;100.00;99829.00;1766848;78;21388;-54
2022/06/26 10:35:48;;;;;;;0.98;0.50;;;;;;;26.89;100.00;99829.13;1769336;78;21855;-53
2022/06/26 10:38:26;;;;;;;0.40;0.40;;;;;;;26.84;100.00;99834.34;1736095;80;20962;-53
2022/06/26 10:44:17;;;;;;;0.70;0.40;;;;;;;26.81;100.00;99830.02;1734322;80;20961;-54
2022/06/26 10:46:48;;;;;;;0.65;0.40;;;;;;;26.84;100.00;99824.16;1712887;80;20913;-58
2022/06/26 10:49:15;;;;;;;0.40;0.40;;;;;;;26.87;100.00;99822.95;1723559;80;21663;-56
2022/06/26 10:51:45;;;;;;;0.45;0.40;;;;;;;26.88;100.00;99818.60;1721234;81;21069;-53
2022/06/26 10:54:29;;;;;;;0.95;0.50;;;;;;;26.87;100.00;99827.09;1719371;81;21016;-54
2022/06/26 10:57:07;;;;;;;2.50;0.40;;;;;;;26.85;100.00;99825.02;1707068;80;21172;-55
2022/06/26 10:59:33;;;;;;;0.60;0.60;;;;;;;26.87;100.00;99831.23;1712690;81;21082;-56
2022/06/26 11:02:00;;;;;;;1.52;0.50;;;;;;;26.86;100.00;99834.52;1691781;81;21514;-56
2022/06/26 11:04:27;;;;;;;2.47;0.50;;;;;;;26.86;100.00;99836.41;1696084;83;21098;-55
2022/06/26 11:06:54;;;;;;;2.22;0.60;;;;;;;26.86;100.00;99835.03;1713427;81;20906;-55
2022/06/26 11:09:20;;;;;;;2.40;0.85;;;;;;;26.84;100.00;99838.48;1681784;83;21415;-56
2022/06/26 11:11:52;;;;;;;4.95;0.50;;;;;;;26.80;100.00;99833.81;1719801;81;20929;-54
2022/06/26 11:14:20;;;;;;;2.02;0.50;;;;;;;26.76;100.00;99835.22;1719845;81;21219;-55
2022/06/26 11:16:47;;;;;;;1.25;0.50;;;;;;;26.70;100.00;99835.41;1719371;81;21451;-55
2022/06/26 11:19:28;;;;;;;89.40;81.08;;;;;;;26.65;100.00;99830.05;1736763;80;21034;-57
2022/06/26 11:22:10;;;;;;;17.23;14.95;;;;;;;26.65;100.00;99830.05;1702510;82;21009;-55
2022/06/26 11:24:51;;;;;;;7.62;7.12;;;;;;;26.67;100.00;99823.33;1734612;80;21057;-56
2022/06/26 11:27:24;;;;;;;3.75;2.27;;;;;;;26.74;100.00;99814.68;1739022;80;21420;-55
2022/06/26 11:29:52;;;;;;;0.90;0.90;;;;;;;26.83;100.00;99816.91;1739429;80;21112;-55
2022/06/26 11:32:22;;;;;;;4.00;3.62;;;;;;;26.90;100.00;99799.09;1740831;80;21032;-55
2022/06/26 11:34:53;;;;;;;4.33;0.90;;;;;;;26.93;100.00;99809.84;1739023;80;21068;-56
2022/06/26 11:37:36;;;;;;;3.27;0.50;;;;;;;26.95;100.00;99811.39;1701733;82;21116;-56
2022/06/26 11:40:13;;;;;;;1.55;1.45;;;;;;;26.98;100.00;99808.77;1740622;80;22153;-57
2022/06/26 11:42:40;;;;;;;0.90;0.90;;;;;;;27.02;100.00;99809.64;1735314;80;20998;-55
2022/06/26 11:45:08;;;;;;;0.95;0.40;;;;;;;27.09;100.00;99807.88;1735041;80;21025;-55